Andenne, Belgium
Current Conditions -  °F | °C
As of 4:50 AM on Wednesday 22 Oct 2014 (Local Time) from EBLG Reporting Station
Rain Showers Rain Showers  
Wind Chill: 36°   Ceiling: 1600
Heat Index: 43°   Visibility: 4mi
Dew Point: 39°   Wind: 13mph
Humidity: 87%   Direction: 300°WNW
Pressure: 30"   Gusts: NA
Location:  50.49°N, 5.1°E
Report Text: EBLG 220250Z 30011KT 270V340 7000 -SHRA FEW012 BKN016TCU BKN026 06/04 Q1016 TEMPO 28018G28KT 4000 SHRA
Loading
Personal Weather Stations






























Interactive Weather Map
Tropical Storm Tracking
New forecast layout! Learn more

10-Day Weather Forecast

Advertisements
Track Severe Weather on mobile